createdAt,value
2022-10-18T00:02:10.066Z,19.25
2022-10-18T00:04:40.385Z,18.30
2022-10-18T00:07:10.467Z,18.33
2022-10-18T00:09:40.649Z,18.95
2022-10-18T00:12:10.843Z,18.25
2022-10-18T00:14:41.006Z,18.10
2022-10-18T00:17:13.853Z,15.43
2022-10-18T00:19:43.957Z,16.87
2022-10-18T00:22:14.303Z,17.60
2022-10-18T00:24:44.583Z,16.80
2022-10-18T00:27:14.813Z,18.35
2022-10-18T00:29:44.993Z,18.02
2022-10-18T00:32:20.631Z,17.73
2022-10-18T00:34:51.103Z,18.45
2022-10-18T00:37:21.601Z,17.35
2022-10-18T00:42:25.668Z,16.58
2022-10-18T00:45:23.387Z,16.40
2022-10-18T00:48:05.747Z,17.08
2022-10-18T00:50:37.394Z,16.10
2022-10-18T00:53:12.856Z,18.35
2022-10-18T00:55:43.067Z,18.20
2022-10-18T00:58:14.872Z,18.75
2022-10-18T01:00:45.498Z,18.60
2022-10-18T01:03:18.422Z,17.67
2022-10-18T01:05:50.790Z,16.85
2022-10-18T01:08:35.448Z,18.00
2022-10-18T01:11:18.653Z,18.38
2022-10-18T01:14:03.775Z,21.03
2022-10-18T01:16:41.128Z,23.95
2022-10-18T01:19:33.009Z,25.25
2022-10-18T01:22:08.632Z,28.52
2022-10-18T01:25:09.960Z,31.55
2022-10-18T01:27:51.302Z,33.72
2022-10-18T01:30:49.300Z,33.67
2022-10-18T01:33:28.833Z,33.95
2022-10-18T01:36:06.625Z,34.08
2022-10-18T01:38:40.491Z,32.70
2022-10-18T01:43:48.965Z,30.42
2022-10-18T01:46:25.613Z,28.83
2022-10-18T01:48:57.530Z,28.10
2022-10-18T01:51:29.267Z,26.95
2022-10-18T01:54:00.251Z,26.42
2022-10-18T01:56:43.017Z,22.92
2022-10-18T01:59:25.477Z,23.85
2022-10-18T02:02:09.779Z,22.75
2022-10-18T02:04:47.447Z,24.92
2022-10-18T02:07:26.934Z,24.48
2022-10-18T02:10:06.389Z,25.90
2022-10-18T02:12:37.769Z,24.05
2022-10-18T02:15:12.045Z,23.25
2022-10-18T02:17:47.623Z,23.08
2022-10-18T02:20:22.959Z,21.80
2022-10-18T02:22:55.546Z,21.88
2022-10-18T02:25:28.413Z,22.65
2022-10-18T02:27:59.469Z,21.48
2022-10-18T02:30:37.144Z,21.35
2022-10-18T02:33:18.164Z,21.40
2022-10-18T02:35:52.883Z,23.13
2022-10-18T02:38:25.596Z,20.98
2022-10-18T02:40:56.021Z,22.58
2022-10-18T02:43:27.892Z,21.05
2022-10-18T02:45:58.215Z,21.00
2022-10-18T02:48:31.206Z,23.92
2022-10-18T02:51:01.446Z,19.80
2022-10-18T02:53:31.830Z,21.75
2022-10-18T02:56:03.387Z,22.38
2022-10-18T02:58:33.719Z,25.02
2022-10-18T03:01:04.582Z,23.73
2022-10-18T03:03:37.279Z,26.48
2022-10-18T03:06:07.770Z,23.58
2022-10-18T03:08:39.325Z,28.70
2022-10-18T03:11:09.888Z,28.15
2022-10-18T03:13:40.176Z,26.33
2022-10-18T03:16:10.476Z,26.25
2022-10-18T03:18:43.686Z,25.08
2022-10-18T03:21:14.015Z,25.70
2022-10-18T03:23:45.611Z,25.80
2022-10-18T03:26:16.174Z,25.17
2022-10-18T03:28:46.871Z,27.27
2022-10-18T03:31:17.160Z,27.65
2022-10-18T03:33:50.765Z,27.58
2022-10-18T03:36:21.243Z,26.50
2022-10-18T03:38:51.399Z,26.77
2022-10-18T03:41:21.434Z,27.25
2022-10-18T03:43:51.670Z,26.58
2022-10-18T03:46:21.852Z,28.23
2022-10-18T03:48:54.748Z,26.10
2022-10-18T03:51:24.870Z,27.13
2022-10-18T03:53:55.354Z,25.85
2022-10-18T03:56:25.642Z,24.55
2022-10-18T03:58:58.961Z,25.38
2022-10-18T04:01:29.087Z,24.58
2022-10-18T04:04:03.055Z,23.77
2022-10-18T04:09:06.527Z,25.70
2022-10-18T04:11:39.700Z,24.50
2022-10-18T04:14:10.033Z,23.77
2022-10-18T04:16:40.176Z,29.15
2022-10-18T04:19:13.933Z,27.55
2022-10-18T04:21:44.521Z,26.30
2022-10-18T04:24:14.596Z,26.55
2022-10-18T04:26:44.909Z,26.95
2022-10-18T04:29:15.425Z,28.08
2022-10-18T04:31:45.658Z,27.20
2022-10-18T04:34:18.318Z,25.67
2022-10-18T04:36:48.997Z,24.73
2022-10-18T04:39:20.562Z,24.95
2022-10-18T04:41:51.160Z,25.48
2022-10-18T04:44:21.463Z,23.25
2022-10-18T04:46:52.490Z,24.77
2022-10-18T04:49:25.350Z,24.92
2022-10-18T04:51:55.653Z,29.70
2022-10-18T04:54:27.963Z,27.50
2022-10-18T04:56:59.056Z,27.65
2022-10-18T04:59:29.312Z,29.60
2022-10-18T05:01:59.660Z,29.25
2022-10-18T05:04:32.492Z,30.20
2022-10-18T05:07:03.214Z,31.95
2022-10-18T05:09:33.373Z,33.28
2022-10-18T05:12:03.656Z,31.10
2022-10-18T05:14:34.220Z,32.58
2022-10-18T05:17:04.893Z,32.92
2022-10-18T05:19:40.667Z,35.13
2022-10-18T05:22:11.062Z,33.97
2022-10-18T05:24:41.405Z,35.55
2022-10-18T05:27:11.845Z,39.60
2022-10-18T05:29:42.002Z,39.78
2022-10-18T05:32:12.103Z,37.33
2022-10-18T05:34:45.710Z,39.38
2022-10-18T05:37:16.283Z,39.05
2022-10-18T05:39:46.580Z,40.58
2022-10-18T05:42:16.915Z,35.75
2022-10-18T05:44:47.392Z,41.10
2022-10-18T05:47:17.651Z,45.67
2022-10-18T05:49:50.867Z,44.35
2022-10-18T05:52:21.082Z,43.05
2022-10-18T05:54:51.418Z,41.33
2022-10-18T05:57:21.650Z,38.65
2022-10-18T05:59:52.295Z,39.53
2022-10-18T06:02:22.530Z,40.70
2022-10-18T06:04:55.407Z,41.50
2022-10-18T06:07:25.469Z,40.05
2022-10-18T06:09:55.844Z,42.33
2022-10-18T06:12:26.004Z,39.78
2022-10-18T06:14:56.250Z,40.75
2022-10-18T06:17:27.797Z,39.95
2022-10-18T06:20:03.258Z,40.90
2022-10-18T06:22:33.397Z,40.05
2022-10-18T06:25:03.657Z,41.35
2022-10-18T06:27:35.025Z,41.88
2022-10-18T06:30:05.430Z,41.92
2022-10-18T06:32:35.760Z,38.28
2022-10-18T06:35:10.163Z,40.03
2022-10-18T06:37:40.624Z,42.10
2022-10-18T06:40:12.361Z,42.47
2022-10-18T06:42:45.328Z,39.03
2022-10-18T06:45:21.977Z,39.67
2022-10-18T06:47:52.452Z,38.55
2022-10-18T06:50:25.610Z,37.70
2022-10-18T06:52:56.027Z,36.88
2022-10-18T06:55:26.303Z,34.92
2022-10-18T06:57:56.576Z,37.10
2022-10-18T07:00:26.770Z,37.15
2022-10-18T07:02:56.971Z,36.67
2022-10-18T07:05:29.908Z,39.42
2022-10-18T07:08:00.116Z,35.90
2022-10-18T07:10:31.038Z,34.55
2022-10-18T07:13:20.089Z,36.60
2022-10-18T07:15:51.996Z,34.78
2022-10-18T07:18:23.006Z,35.08
2022-10-18T07:20:56.105Z,34.33
2022-10-18T07:23:26.670Z,32.25
2022-10-18T07:25:56.811Z,32.38
2022-10-18T07:28:26.881Z,30.15
2022-10-18T07:31:00.285Z,33.25
2022-10-18T07:33:32.609Z,29.88
2022-10-18T07:36:09.112Z,28.30
2022-10-18T07:38:39.629Z,28.10
2022-10-18T07:41:11.139Z,28.45
2022-10-18T07:43:45.890Z,28.52
2022-10-18T07:46:18.270Z,28.58
2022-10-18T07:48:48.374Z,28.02
2022-10-18T07:51:22.667Z,28.10
2022-10-18T07:53:53.168Z,26.95
2022-10-18T07:56:24.710Z,27.40
2022-10-18T07:58:56.489Z,26.92
2022-10-18T08:01:28.151Z,29.23
2022-10-18T08:04:03.238Z,29.38
2022-10-18T08:06:39.449Z,28.15
2022-10-18T08:09:10.128Z,22.90
2022-10-18T08:11:40.180Z,24.20
2022-10-18T08:14:10.329Z,23.92
2022-10-18T08:16:41.600Z,23.52
2022-10-18T08:19:12.295Z,22.48
2022-10-18T08:21:45.273Z,22.17
2022-10-18T08:24:15.299Z,22.40
2022-10-18T08:26:45.291Z,25.70
2022-10-18T08:29:23.862Z,25.17
2022-10-18T08:31:56.003Z,22.65
2022-10-18T08:34:27.891Z,21.58
2022-10-18T08:37:02.343Z,20.05
2022-10-18T08:39:32.640Z,22.08
2022-10-18T08:42:19.210Z,25.05
2022-10-18T08:44:53.698Z,19.15
2022-10-18T08:47:27.915Z,20.42
2022-10-18T08:50:02.634Z,19.02
2022-10-18T08:52:47.095Z,40.67
2022-10-18T08:55:25.316Z,23.85
2022-10-18T08:57:57.874Z,16.90
2022-10-18T09:00:32.679Z,20.38
2022-10-18T09:03:20.429Z,21.95
2022-10-18T09:05:54.776Z,13.68
2022-10-18T09:09:00.370Z,15.95
2022-10-18T09:11:44.580Z,17.45
2022-10-18T09:14:32.876Z,42.67
2022-10-18T09:17:16.462Z,32.63
2022-10-18T09:20:14.355Z,54.70
2022-10-18T09:22:56.663Z,20.23
2022-10-18T09:25:39.082Z,37.28
2022-10-18T09:28:26.634Z,20.23
2022-10-18T09:31:04.334Z,23.33
2022-10-18T09:33:45.082Z,41.72
2022-10-18T09:36:21.565Z,92.85
2022-10-18T09:38:57.220Z,43.95
2022-10-18T09:41:41.179Z,34.50
2022-10-18T09:44:19.546Z,25.58
2022-10-18T09:46:54.578Z,19.60
2022-10-18T09:49:28.909Z,42.63
2022-10-18T09:52:02.929Z,33.28
2022-10-18T09:54:38.143Z,18.52
2022-10-18T09:57:16.258Z,15.75
2022-10-18T09:59:49.478Z,13.15
2022-10-18T10:02:22.403Z,20.45
2022-10-18T10:04:59.069Z,36.97
2022-10-18T10:07:38.258Z,9.43
2022-10-18T10:10:16.434Z,18.70
2022-10-18T10:12:52.120Z,38.88
2022-10-18T10:15:28.285Z,10.07
2022-10-18T10:18:05.217Z,10.63
2022-10-18T10:20:39.702Z,8.95
2022-10-18T10:23:20.040Z,15.32
2022-10-18T10:25:55.666Z,18.45
2022-10-18T10:28:33.182Z,12.05
2022-10-18T10:31:22.419Z,12.60
2022-10-18T10:34:02.420Z,9.20
2022-10-18T10:36:36.394Z,21.13
2022-10-18T10:39:09.695Z,8.30
2022-10-18T10:41:43.311Z,8.45
2022-10-18T10:46:54.475Z,21.67
2022-10-18T10:49:39.798Z,18.08
2022-10-18T10:52:36.591Z,10.35
2022-10-18T10:55:30.806Z,9.18
2022-10-18T10:57:59.395Z,8.02
2022-10-18T11:00:47.214Z,11.43
2022-10-18T11:03:28.924Z,9.55
2022-10-18T11:06:02.097Z,10.05
2022-10-18T11:08:38.922Z,11.32
2022-10-18T11:11:23.284Z,8.07
2022-10-18T11:14:21.157Z,9.65
2022-10-18T11:17:05.548Z,7.47
2022-10-18T11:19:46.196Z,7.78
2022-10-18T11:22:21.949Z,9.85
2022-10-18T11:24:52.397Z,25.63
2022-10-18T11:27:29.063Z,8.20
2022-10-18T11:30:17.435Z,7.80
2022-10-18T11:32:55.965Z,6.07
2022-10-18T11:35:39.073Z,6.40
2022-10-18T11:38:38.138Z,7.68
2022-10-18T11:41:32.087Z,10.82
2022-10-18T11:46:49.675Z,11.00
2022-10-18T11:49:36.581Z,8.90
2022-10-18T11:52:15.705Z,7.97
2022-10-18T11:55:08.351Z,6.15
2022-10-18T11:57:51.407Z,6.38
2022-10-18T12:00:33.581Z,5.68
2022-10-18T12:03:22.174Z,11.68
2022-10-18T12:05:58.383Z,9.65
2022-10-18T12:08:35.998Z,5.55
2022-10-18T12:11:13.697Z,5.55
2022-10-18T12:13:50.450Z,5.72
2022-10-18T12:16:45.477Z,6.78
2022-10-18T12:19:25.185Z,6.28
2022-10-18T12:22:14.886Z,5.82
2022-10-18T12:24:46.306Z,4.63
2022-10-18T12:27:19.469Z,5.47
2022-10-18T12:29:57.150Z,5.38
2022-10-18T12:32:34.171Z,6.32
2022-10-18T12:35:09.485Z,5.95
2022-10-18T12:38:21.449Z,6.20
2022-10-18T12:40:57.644Z,5.55
2022-10-18T12:43:32.699Z,7.38
2022-10-18T12:46:10.754Z,7.07
2022-10-18T12:48:46.998Z,8.95
2022-10-18T12:51:20.050Z,6.82
2022-10-18T12:54:00.043Z,5.65
2022-10-18T12:56:43.084Z,5.28
2022-10-18T12:59:52.372Z,6.45
2022-10-18T13:02:29.066Z,6.65
2022-10-18T13:05:00.912Z,11.05
2022-10-18T13:07:45.637Z,11.82
2022-10-18T13:10:48.758Z,9.85
2022-10-18T13:13:55.507Z,7.38
2022-10-18T13:16:42.248Z,4.82
2022-10-18T13:19:25.185Z,4.85
2022-10-18T13:22:11.405Z,5.57
2022-10-18T13:24:47.494Z,5.80
2022-10-18T13:27:36.907Z,6.60
2022-10-18T13:30:33.489Z,5.75
2022-10-18T13:33:19.341Z,5.32
2022-10-18T13:35:55.721Z,5.28
2022-10-18T13:38:47.405Z,4.05
2022-10-18T13:41:20.171Z,5.25
2022-10-18T13:44:16.208Z,6.15
2022-10-18T13:47:21.709Z,5.65
2022-10-18T13:50:28.089Z,5.93
2022-10-18T13:53:22.532Z,4.82
2022-10-18T13:56:02.383Z,5.68
2022-10-18T13:58:53.751Z,6.10
2022-10-18T14:01:52.894Z,4.97
2022-10-18T14:05:16.630Z,4.15
2022-10-18T14:07:50.542Z,5.50
2022-10-18T14:10:43.670Z,4.75
2022-10-18T14:13:24.713Z,5.07
2022-10-18T14:15:59.144Z,5.60
2022-10-18T14:18:38.439Z,4.20
2022-10-18T14:21:19.839Z,4.45
2022-10-18T14:23:51.774Z,5.25
2022-10-18T14:26:24.261Z,4.88
2022-10-18T14:29:07.105Z,4.53
2022-10-18T14:31:38.587Z,4.83
2022-10-18T14:34:18.385Z,4.53
2022-10-18T14:36:51.603Z,4.90
2022-10-18T14:39:23.991Z,4.97
2022-10-18T14:41:57.432Z,4.63
2022-10-18T14:47:04.705Z,6.60
2022-10-18T14:49:45.495Z,5.97
2022-10-18T14:52:18.982Z,6.93
2022-10-18T14:57:24.461Z,4.80
2022-10-18T15:00:02.162Z,5.32
2022-10-18T15:02:35.483Z,5.82
2022-10-18T15:05:20.747Z,4.35
2022-10-18T15:07:51.934Z,4.90
2022-10-18T15:10:25.006Z,5.25
2022-10-18T15:13:16.904Z,4.82
2022-10-18T15:15:49.147Z,4.82
2022-10-18T15:18:24.795Z,4.90
2022-10-18T15:21:13.375Z,5.22
2022-10-18T15:23:43.503Z,5.38
2022-10-18T15:26:18.478Z,4.68
2022-10-18T15:28:54.138Z,4.85
2022-10-18T15:31:28.853Z,5.03
2022-10-18T15:34:13.069Z,4.88
2022-10-18T15:36:45.785Z,8.52
2022-10-18T15:39:21.130Z,6.43
2022-10-18T15:41:53.485Z,5.10
2022-10-18T15:44:31.750Z,5.50
2022-10-18T15:47:21.633Z,5.10
2022-10-18T15:49:58.466Z,5.82
2022-10-18T15:52:45.311Z,6.55
2022-10-18T15:55:48.990Z,6.03
2022-10-18T15:58:28.299Z,6.07
2022-10-18T16:01:02.441Z,5.82
2022-10-18T16:03:37.158Z,6.32
2022-10-18T16:06:12.246Z,7.07
2022-10-18T16:08:51.125Z,7.57
2022-10-18T16:11:24.045Z,22.52
2022-10-18T16:13:58.000Z,22.83
2022-10-18T16:16:32.163Z,12.18
2022-10-18T16:19:03.154Z,11.40
2022-10-18T16:21:35.639Z,11.60
2022-10-18T16:24:09.412Z,9.90
2022-10-18T16:26:40.477Z,10.57
2022-10-18T16:29:15.241Z,12.68
2022-10-18T16:31:46.793Z,15.50
2022-10-18T16:34:17.516Z,21.25
2022-10-18T16:36:47.976Z,29.05
2022-10-18T16:39:22.752Z,25.50
2022-10-18T16:41:56.103Z,23.30
2022-10-18T16:44:26.169Z,20.27
2022-10-18T16:46:56.449Z,11.60
2022-10-18T16:49:28.662Z,10.23
2022-10-18T16:51:59.726Z,8.45
2022-10-18T16:54:32.864Z,9.98
2022-10-18T16:57:03.009Z,10.90
2022-10-18T16:59:34.817Z,10.18
2022-10-18T17:02:09.142Z,11.10
2022-10-18T17:04:39.523Z,11.73
2022-10-18T17:07:13.313Z,10.30
2022-10-18T17:09:46.413Z,9.88
2022-10-18T17:12:16.659Z,10.70
2022-10-18T17:14:46.721Z,9.68
2022-10-18T17:17:16.929Z,8.60
2022-10-18T17:19:47.440Z,9.73
2022-10-18T17:22:17.480Z,8.82
2022-10-18T17:24:50.291Z,9.00
2022-10-18T17:27:21.145Z,19.90
2022-10-18T17:29:51.346Z,24.42
2022-10-18T17:32:21.499Z,18.42
2022-10-18T17:34:51.953Z,15.98
2022-10-18T17:37:22.189Z,12.23
2022-10-18T17:39:55.329Z,11.77
2022-10-18T17:42:25.521Z,11.68
2022-10-18T17:44:57.729Z,12.18
2022-10-18T17:47:28.213Z,11.02
2022-10-18T17:49:58.518Z,10.57
2022-10-18T17:52:29.096Z,11.23
2022-10-18T17:55:01.882Z,14.38
2022-10-18T17:57:32.056Z,12.37
2022-10-18T18:00:03.311Z,12.63
2022-10-18T18:02:42.904Z,12.50
2022-10-18T18:05:13.399Z,12.82
2022-10-18T18:07:44.313Z,12.55
2022-10-18T18:10:17.178Z,12.00
2022-10-18T18:12:48.126Z,11.70
2022-10-18T18:15:18.825Z,16.92
2022-10-18T18:18:03.661Z,17.88
2022-10-18T18:20:33.933Z,17.92
2022-10-18T18:23:04.187Z,20.58
2022-10-18T18:25:37.019Z,23.17
2022-10-18T18:28:07.750Z,30.50
2022-10-18T18:30:38.446Z,29.13
2022-10-18T18:33:08.839Z,27.23
2022-10-18T18:35:39.030Z,22.50
2022-10-18T18:38:09.270Z,22.30
2022-10-18T18:40:41.902Z,18.52
2022-10-18T18:43:23.145Z,24.77
2022-10-18T18:45:54.860Z,21.38
2022-10-18T18:48:25.060Z,20.00
2022-10-18T18:50:55.268Z,20.40
2022-10-18T18:53:28.639Z,20.77
2022-10-18T18:56:08.874Z,20.23
2022-10-18T18:58:40.921Z,18.42
2022-10-18T19:01:12.281Z,16.83
2022-10-18T19:03:43.215Z,16.95
2022-10-18T19:06:15.983Z,16.00
2022-10-18T19:08:47.799Z,14.50
2022-10-18T19:11:23.035Z,13.57
2022-10-18T19:13:53.279Z,13.23
2022-10-18T19:16:27.894Z,13.93
2022-10-18T19:19:01.212Z,14.63
2022-10-18T19:21:33.983Z,16.00
2022-10-18T19:24:05.062Z,53.50
2022-10-18T19:26:44.605Z,21.95
2022-10-18T19:29:18.060Z,19.33
2022-10-18T19:31:48.671Z,17.75
2022-10-18T19:34:20.692Z,15.73
2022-10-18T19:36:52.421Z,15.15
2022-10-18T19:39:24.176Z,15.70
2022-10-18T19:42:03.421Z,15.73
2022-10-18T19:44:36.169Z,15.75
2022-10-18T19:47:06.952Z,15.95
2022-10-18T19:49:37.008Z,171.18
2022-10-18T19:52:07.118Z,138.10
2022-10-18T19:54:37.428Z,83.93
2022-10-18T19:57:10.646Z,45.58
2022-10-18T20:02:41.783Z,29.25
2022-10-18T20:05:12.979Z,27.90
2022-10-18T20:07:45.440Z,29.23
2022-10-18T20:10:15.870Z,22.85
2022-10-18T20:12:49.067Z,24.95
2022-10-18T20:15:20.344Z,24.13
2022-10-18T20:17:50.404Z,23.40
2022-10-18T20:20:20.493Z,20.48
2022-10-18T20:22:50.669Z,19.67
2022-10-18T20:25:20.841Z,18.83
2022-10-18T20:27:53.875Z,19.25
2022-10-18T20:30:24.260Z,18.42
2022-10-18T20:32:54.835Z,18.92
2022-10-18T20:35:24.904Z,18.17
2022-10-18T20:37:55.135Z,18.80
2022-10-18T20:40:25.238Z,18.92
2022-10-18T20:43:02.955Z,19.08
2022-10-18T20:45:34.440Z,20.40
2022-10-18T20:48:04.767Z,20.00
2022-10-18T20:50:34.924Z,20.05
2022-10-18T20:53:05.169Z,19.17
2022-10-18T20:55:36.609Z,18.02
2022-10-18T20:58:09.821Z,18.40
2022-10-18T21:00:43.151Z,19.60
2022-10-18T21:03:13.227Z,17.60
2022-10-18T21:05:43.305Z,18.13
2022-10-18T21:08:13.635Z,17.35
2022-10-18T21:10:43.736Z,17.27
2022-10-18T21:13:16.333Z,16.65
2022-10-18T21:15:46.838Z,17.95
2022-10-18T21:18:17.071Z,17.20
2022-10-18T21:20:47.263Z,18.38
2022-10-18T21:23:17.333Z,18.92
2022-10-18T21:25:48.148Z,18.02
2022-10-18T21:28:20.825Z,16.65
2022-10-18T21:30:52.408Z,16.38
2022-10-18T21:33:22.463Z,17.08
2022-10-18T21:35:52.528Z,15.98
2022-10-18T21:38:22.572Z,15.30
2022-10-18T21:40:52.746Z,14.88
2022-10-18T21:43:25.574Z,14.80
2022-10-18T21:46:00.926Z,14.47
2022-10-18T21:48:31.310Z,14.88
2022-10-18T21:51:06.069Z,15.52
2022-10-18T21:53:36.968Z,14.38
2022-10-18T21:56:09.203Z,14.65
2022-10-18T21:58:42.450Z,14.55
2022-10-18T22:01:13.869Z,13.88
2022-10-18T22:03:44.182Z,13.45
2022-10-18T22:06:17.419Z,15.13
2022-10-18T22:08:50.440Z,12.93
2022-10-18T22:11:21.907Z,13.02
2022-10-18T22:13:55.795Z,13.00
2022-10-18T22:18:59.800Z,12.88
2022-10-18T22:21:30.333Z,14.13
2022-10-18T22:24:02.629Z,12.60
2022-10-18T22:26:35.905Z,14.02
2022-10-18T22:29:10.897Z,14.35
2022-10-18T22:31:43.626Z,13.82
2022-10-18T22:34:16.167Z,14.02
2022-10-18T22:36:47.006Z,14.80
2022-10-18T22:39:17.659Z,14.85
2022-10-18T22:41:49.591Z,16.02
2022-10-18T22:44:22.644Z,15.32
2022-10-18T22:46:52.698Z,13.93
2022-10-18T22:49:22.883Z,14.80
2022-10-18T22:51:53.056Z,14.13
2022-10-18T22:54:23.105Z,14.20
2022-10-18T22:56:54.768Z,13.40
2022-10-18T22:59:27.926Z,14.40
2022-10-18T23:01:58.123Z,13.82
2022-10-18T23:04:28.490Z,12.52
2022-10-18T23:06:58.832Z,13.48
2022-10-18T23:09:29.181Z,11.73
2022-10-18T23:11:59.523Z,11.27
2022-10-18T23:14:33.810Z,12.25
2022-10-18T23:17:03.890Z,12.25
2022-10-18T23:19:33.937Z,12.02
2022-10-18T23:22:04.235Z,11.30
2022-10-18T23:24:34.591Z,12.23
2022-10-18T23:27:06.470Z,13.07
2022-10-18T23:29:39.411Z,12.98
2022-10-18T23:32:09.675Z,13.40
2022-10-18T23:34:39.757Z,13.60
2022-10-18T23:37:11.631Z,13.15
2022-10-18T23:39:42.342Z,15.30
2022-10-18T23:42:12.395Z,14.80
2022-10-18T23:44:45.402Z,12.88
2022-10-18T23:47:15.468Z,15.68
2022-10-18T23:49:45.758Z,16.40
2022-10-18T23:52:15.953Z,16.10
2022-10-18T23:54:46.124Z,15.93
2022-10-18T23:57:16.408Z,15.75
2022-10-18T23:59:49.290Z,16.35
